createdAt,value
2023-04-29T00:02:34.868Z,9.93
2023-04-29T00:05:21.043Z,10.18
2023-04-29T00:08:06.563Z,9.05
2023-04-29T00:10:52.185Z,9.27
2023-04-29T00:13:40.833Z,7.95
2023-04-29T00:16:26.731Z,8.07
2023-04-29T00:19:12.908Z,9.60
2023-04-29T00:21:59.413Z,8.00
2023-04-29T00:27:30.486Z,6.15
2023-04-29T00:30:16.132Z,6.77
2023-04-29T00:33:01.584Z,7.70
2023-04-29T00:35:47.124Z,6.73
2023-04-29T00:38:33.043Z,7.22
2023-04-29T00:41:18.432Z,5.40
2023-04-29T00:44:04.059Z,6.00
2023-04-29T00:46:49.545Z,6.43
2023-04-29T00:49:35.322Z,7.40
2023-04-29T00:52:21.923Z,8.48
2023-04-29T00:57:54.348Z,8.45
2023-04-29T01:00:41.568Z,9.53
2023-04-29T01:03:28.824Z,12.15
2023-04-29T01:06:41.360Z,9.95
2023-04-29T01:09:49.308Z,12.75
2023-04-29T01:16:01.940Z,13.00
2023-04-29T01:18:54.389Z,12.60
2023-04-29T01:21:49.540Z,11.85
2023-04-29T01:24:35.264Z,14.93
2023-04-29T01:27:48.509Z,15.85
2023-04-29T01:30:52.827Z,14.32
2023-04-29T01:33:57.192Z,12.75
2023-04-29T01:37:12.195Z,18.02
2023-04-29T01:40:12.689Z,14.57
2023-04-29T01:43:03.402Z,15.82
2023-04-29T01:45:50.119Z,18.88
2023-04-29T01:48:37.324Z,23.08
2023-04-29T01:51:22.801Z,19.25
2023-04-29T01:54:08.194Z,17.90
2023-04-29T01:56:54.000Z,17.10
2023-04-29T01:59:39.468Z,15.38
2023-04-29T02:02:25.522Z,16.42
2023-04-29T02:05:11.211Z,17.92
2023-04-29T02:07:56.640Z,16.92
2023-04-29T02:10:42.197Z,11.37
2023-04-29T02:13:27.871Z,15.33
2023-04-29T02:16:15.312Z,17.00
2023-04-29T02:19:00.962Z,19.20
2023-04-29T02:21:46.877Z,18.67
2023-04-29T02:24:32.690Z,15.93
2023-04-29T02:27:18.240Z,17.60
2023-04-29T02:30:04.880Z,19.67
2023-04-29T02:32:51.183Z,18.77
2023-04-29T02:35:37.127Z,20.98
2023-04-29T02:38:22.918Z,18.83
2023-04-29T02:41:08.268Z,20.88
2023-04-29T02:43:53.717Z,23.05
2023-04-29T02:46:40.801Z,20.88
2023-04-29T02:49:26.650Z,20.45
2023-04-29T02:52:12.784Z,22.58
2023-04-29T02:54:59.505Z,20.48
2023-04-29T02:57:45.235Z,20.63
2023-04-29T03:00:30.850Z,19.73
2023-04-29T03:03:17.317Z,22.88
2023-04-29T03:06:03.403Z,15.88
2023-04-29T03:08:49.160Z,19.77
2023-04-29T03:11:34.452Z,16.08
2023-04-29T03:14:20.010Z,17.37
2023-04-29T03:17:05.662Z,18.52
2023-04-29T03:19:53.261Z,19.98
2023-04-29T03:22:39.200Z,15.65
2023-04-29T03:25:24.517Z,21.77
2023-04-29T03:28:10.818Z,16.15
2023-04-29T03:30:57.275Z,14.27
2023-04-29T03:33:43.192Z,19.50
2023-04-29T03:36:29.035Z,19.58
2023-04-29T03:39:14.481Z,18.65
2023-04-29T03:41:59.996Z,13.32
2023-04-29T03:44:45.714Z,19.15
2023-04-29T03:47:31.163Z,21.05
2023-04-29T03:50:16.683Z,17.00
2023-04-29T03:53:02.385Z,15.97
2023-04-29T03:55:48.522Z,15.10
2023-04-29T03:58:34.019Z,16.88
2023-04-29T04:01:19.603Z,18.15
2023-04-29T04:04:05.075Z,15.13
2023-04-29T04:06:51.895Z,24.05
2023-04-29T04:09:38.296Z,23.85
2023-04-29T04:12:23.636Z,28.27
2023-04-29T04:15:09.121Z,23.85
2023-04-29T04:17:54.547Z,25.93
2023-04-29T04:20:39.983Z,24.33
2023-04-29T04:23:25.341Z,25.10
2023-04-29T04:26:10.981Z,30.97
2023-04-29T04:28:56.812Z,26.48
2023-04-29T04:31:43.414Z,23.20
2023-04-29T04:34:30.280Z,32.70
2023-04-29T04:37:16.176Z,25.40
2023-04-29T04:40:02.059Z,30.05
2023-04-29T04:42:47.342Z,22.77
2023-04-29T04:45:32.901Z,27.58
2023-04-29T04:48:18.655Z,31.33
2023-04-29T04:51:13.931Z,25.70
2023-04-29T04:53:59.550Z,29.95
2023-04-29T04:56:45.292Z,31.10
2023-04-29T04:59:30.960Z,25.55
2023-04-29T05:02:16.605Z,24.35
2023-04-29T05:05:02.206Z,28.37
2023-04-29T05:07:47.698Z,28.65
2023-04-29T05:10:36.670Z,24.67
2023-04-29T05:13:22.330Z,28.83
2023-04-29T05:16:08.065Z,24.10
2023-04-29T05:18:53.318Z,28.98
2023-04-29T05:21:38.890Z,26.95
2023-04-29T05:24:24.150Z,25.50
2023-04-29T05:27:09.917Z,29.95
2023-04-29T05:29:55.626Z,27.70
2023-04-29T05:32:40.831Z,30.30
2023-04-29T05:35:26.479Z,26.80
2023-04-29T05:38:12.198Z,27.90
2023-04-29T05:40:58.369Z,28.08
2023-04-29T05:43:43.831Z,28.73
2023-04-29T05:46:29.314Z,28.07
2023-04-29T05:49:15.817Z,26.37
2023-04-29T05:52:06.276Z,24.73
2023-04-29T05:54:51.688Z,32.47
2023-04-29T05:57:37.353Z,28.13
2023-04-29T06:00:22.669Z,29.23
2023-04-29T06:03:08.274Z,26.67
2023-04-29T06:05:54.888Z,21.70
2023-04-29T06:08:40.848Z,22.30
2023-04-29T06:11:26.713Z,21.38
2023-04-29T06:14:12.423Z,20.45
2023-04-29T06:16:58.005Z,19.65
2023-04-29T06:19:43.309Z,21.73
2023-04-29T06:22:28.677Z,22.58
2023-04-29T06:25:14.190Z,21.60
2023-04-29T06:27:59.671Z,23.15
2023-04-29T06:30:46.417Z,21.10
2023-04-29T06:36:20.354Z,18.63
2023-04-29T06:39:05.890Z,15.68
2023-04-29T06:41:52.210Z,17.33
2023-04-29T06:44:37.814Z,16.25
2023-04-29T06:47:23.934Z,15.73
2023-04-29T06:50:10.394Z,18.08
2023-04-29T06:52:55.689Z,16.70
2023-04-29T06:55:43.505Z,12.40
2023-04-29T06:58:29.501Z,14.55
2023-04-29T07:01:15.212Z,13.10
2023-04-29T07:04:00.865Z,13.43
2023-04-29T07:06:47.017Z,7.73
2023-04-29T07:09:32.749Z,9.82
2023-04-29T07:12:19.694Z,9.57
2023-04-29T07:15:05.676Z,10.68
2023-04-29T07:17:51.195Z,8.45
2023-04-29T07:20:39.969Z,8.33
2023-04-29T07:23:25.743Z,9.13
2023-04-29T07:26:13.656Z,7.47
2023-04-29T07:28:58.986Z,17.60
2023-04-29T07:31:44.656Z,7.57
2023-04-29T07:36:58.710Z,7.65
2023-04-29T07:39:44.435Z,6.80
2023-04-29T07:42:29.989Z,5.80
2023-04-29T07:45:15.589Z,7.97
2023-04-29T07:48:01.501Z,6.80
2023-04-29T07:50:46.911Z,5.22
2023-04-29T07:53:32.500Z,4.25
2023-04-29T07:56:18.920Z,4.32
2023-04-29T07:59:04.332Z,5.50
2023-04-29T08:01:49.804Z,7.40
2023-04-29T08:04:39.663Z,9.40
2023-04-29T08:07:25.314Z,6.13
2023-04-29T08:10:10.804Z,8.70
2023-04-29T08:12:56.169Z,8.35
2023-04-29T08:15:41.521Z,10.52
2023-04-29T08:18:26.937Z,5.07
2023-04-29T08:21:12.266Z,6.38
2023-04-29T08:23:57.989Z,5.40
2023-04-29T08:26:43.306Z,4.97
2023-04-29T08:29:32.700Z,7.00
2023-04-29T08:32:18.039Z,6.13
2023-04-29T08:35:03.449Z,6.13
2023-04-29T08:37:48.746Z,6.20
2023-04-29T08:40:35.722Z,8.00
2023-04-29T08:43:22.130Z,4.03
2023-04-29T08:46:08.137Z,4.13
2023-04-29T08:51:39.951Z,5.28
2023-04-29T08:54:25.636Z,3.47
2023-04-29T08:57:12.107Z,6.00
2023-04-29T09:00:00.141Z,2.90
2023-04-29T09:02:50.899Z,4.43
2023-04-29T09:05:36.516Z,4.20
2023-04-29T09:08:24.221Z,4.00
2023-04-29T09:11:11.691Z,4.22
2023-04-29T09:14:01.568Z,2.35
2023-04-29T09:16:47.703Z,3.17
2023-04-29T09:19:35.100Z,4.88
2023-04-29T09:22:20.914Z,3.65
2023-04-29T09:25:12.842Z,4.90
2023-04-29T09:27:58.574Z,5.93
2023-04-29T09:30:47.282Z,3.97
2023-04-29T09:33:48.921Z,4.88
2023-04-29T09:36:45.437Z,5.15
2023-04-29T09:39:39.547Z,4.22
2023-04-29T09:42:24.853Z,4.70
2023-04-29T09:45:11.897Z,4.55
2023-04-29T09:48:08.506Z,4.70
2023-04-29T09:51:02.048Z,6.72
2023-04-29T09:53:47.567Z,3.90
2023-04-29T09:56:50.042Z,10.23
2023-04-29T09:59:38.224Z,5.18
2023-04-29T10:02:25.445Z,6.82
2023-04-29T10:05:12.010Z,5.85
2023-04-29T10:07:58.997Z,4.65
2023-04-29T10:10:46.337Z,3.22
2023-04-29T10:13:35.477Z,3.55
2023-04-29T10:16:30.093Z,3.28
2023-04-29T10:19:24.802Z,3.28
2023-04-29T10:22:16.953Z,4.00
2023-04-29T10:25:06.086Z,3.55
2023-04-29T10:27:53.654Z,4.07
2023-04-29T10:30:39.966Z,4.05
2023-04-29T10:33:27.857Z,4.10
2023-04-29T10:36:14.997Z,2.20
2023-04-29T10:39:05.911Z,3.22
2023-04-29T10:41:51.806Z,3.95
2023-04-29T10:45:16.112Z,3.75
2023-04-29T10:48:10.848Z,7.88
2023-04-29T10:50:56.095Z,10.73
